createdAt,value
2022-11-24T00:01:13.255Z,3.08
2022-11-24T00:03:42.497Z,1.45
2022-11-24T00:06:12.419Z,1.42
2022-11-24T00:08:41.379Z,1.45
2022-11-24T00:11:11.106Z,1.27
2022-11-24T00:13:40.066Z,1.42
2022-11-24T00:16:10.381Z,1.45
2022-11-24T00:18:38.676Z,1.42
2022-11-24T00:21:08.174Z,1.17
2022-11-24T00:23:36.643Z,1.02
2022-11-24T00:26:08.419Z,1.20
2022-11-24T00:28:37.022Z,1.70
2022-11-24T00:31:06.391Z,1.92
2022-11-24T00:33:34.467Z,1.63
2022-11-24T00:36:02.139Z,1.23
2022-11-24T00:38:31.171Z,1.45
2022-11-24T00:40:58.925Z,1.15
2022-11-24T00:43:26.812Z,2.22
2022-11-24T00:45:54.626Z,2.33
2022-11-24T00:48:22.880Z,1.65
2022-11-24T00:50:58.220Z,1.52
2022-11-24T00:53:26.643Z,2.08
2022-11-24T00:55:56.182Z,2.78
2022-11-24T00:58:25.147Z,1.77
2022-11-24T01:00:53.527Z,1.70
2022-11-24T01:03:22.544Z,2.72
2022-11-24T01:05:50.299Z,2.22
2022-11-24T01:08:18.037Z,2.00
2022-11-24T01:10:45.702Z,2.90
2022-11-24T01:13:14.832Z,2.83
2022-11-24T01:15:42.571Z,2.75
2022-11-24T01:18:10.911Z,3.30
2022-11-24T01:20:38.928Z,2.85
2022-11-24T01:23:07.431Z,3.03
2022-11-24T01:25:35.105Z,3.40
2022-11-24T01:28:02.879Z,2.75
2022-11-24T01:30:31.984Z,2.53
2022-11-24T01:32:59.755Z,2.60
2022-11-24T01:35:29.160Z,2.67
2022-11-24T01:37:57.133Z,2.72
2022-11-24T01:40:25.084Z,2.78
2022-11-24T01:42:53.954Z,2.95
2022-11-24T01:45:35.794Z,2.70
2022-11-24T01:48:06.998Z,2.65
2022-11-24T01:50:36.712Z,2.90
2022-11-24T01:53:05.764Z,2.97
2022-11-24T01:55:37.592Z,2.55
2022-11-24T01:58:08.368Z,2.95
2022-11-24T02:00:39.489Z,2.70
2022-11-24T02:03:08.641Z,2.63
2022-11-24T02:05:44.190Z,2.95
2022-11-24T02:08:21.112Z,3.30
2022-11-24T02:10:49.606Z,3.33
2022-11-24T02:13:18.040Z,3.50
2022-11-24T02:15:47.316Z,2.88
2022-11-24T02:18:15.169Z,2.85
2022-11-24T02:20:43.127Z,2.95
2022-11-24T02:23:19.743Z,3.50
2022-11-24T02:25:57.313Z,3.03
2022-11-24T02:28:30.472Z,3.00
2022-11-24T02:30:59.687Z,3.13
2022-11-24T02:33:28.131Z,2.67
2022-11-24T02:35:55.851Z,3.20
2022-11-24T02:38:31.304Z,3.33
2022-11-24T02:41:01.694Z,2.95
2022-11-24T02:43:33.718Z,3.35
2022-11-24T02:46:01.492Z,3.55
2022-11-24T02:48:29.219Z,2.65
2022-11-24T02:50:56.914Z,2.88
2022-11-24T02:53:24.894Z,3.00
2022-11-24T02:55:53.136Z,2.63
2022-11-24T02:58:21.408Z,2.70
2022-11-24T03:00:50.540Z,3.80
2022-11-24T03:03:18.630Z,2.50
2022-11-24T03:05:46.347Z,3.38
2022-11-24T03:08:14.344Z,2.90
2022-11-24T03:10:42.202Z,2.38
2022-11-24T03:13:10.155Z,2.25
2022-11-24T03:15:38.448Z,1.98
2022-11-24T03:18:07.658Z,2.45
2022-11-24T03:20:35.353Z,1.80
2022-11-24T03:23:03.058Z,1.77
2022-11-24T03:25:30.712Z,2.67
2022-11-24T03:27:58.861Z,1.90
2022-11-24T03:30:26.558Z,1.48
2022-11-24T03:32:54.643Z,2.45
2022-11-24T03:35:24.467Z,1.73
2022-11-24T03:37:52.149Z,2.80
2022-11-24T03:40:20.035Z,2.00
2022-11-24T03:42:47.700Z,2.20
2022-11-24T03:45:44.188Z,1.85
2022-11-24T03:48:03.557Z,2.20
2022-11-24T03:50:32.892Z,1.23
2022-11-24T03:53:00.609Z,1.40
2022-11-24T03:55:28.310Z,1.65
2022-11-24T03:57:56.194Z,1.35
2022-11-24T04:00:24.012Z,1.55
2022-11-24T04:02:51.820Z,1.60
2022-11-24T04:05:19.792Z,1.20
2022-11-24T04:07:48.925Z,1.50
2022-11-24T04:10:16.755Z,1.05
2022-11-24T04:12:46.605Z,1.42
2022-11-24T04:15:17.130Z,1.30
2022-11-24T04:17:45.527Z,1.20
2022-11-24T04:20:14.002Z,1.60
2022-11-24T04:22:41.984Z,1.63
2022-11-24T04:25:12.137Z,1.42
2022-11-24T04:27:40.276Z,1.27
2022-11-24T04:30:09.785Z,1.63
2022-11-24T04:32:37.822Z,1.20
2022-11-24T04:35:06.052Z,1.95
2022-11-24T04:37:35.135Z,1.10
2022-11-24T04:40:03.098Z,1.35
2022-11-24T04:42:32.223Z,1.30
2022-11-24T04:44:59.985Z,1.70
2022-11-24T04:47:28.730Z,1.40
2022-11-24T04:49:56.654Z,1.63
2022-11-24T04:52:25.810Z,1.73
2022-11-24T04:54:53.796Z,2.00
2022-11-24T04:57:23.880Z,0.90
2022-11-24T04:59:53.829Z,0.95
2022-11-24T05:02:22.097Z,1.30
2022-11-24T05:04:50.830Z,1.60
2022-11-24T05:07:19.724Z,1.80
2022-11-24T05:10:05.616Z,1.77
2022-11-24T05:12:33.571Z,1.95
2022-11-24T05:15:04.856Z,1.33
2022-11-24T05:17:34.571Z,1.95
2022-11-24T05:20:02.592Z,1.30
2022-11-24T05:22:31.640Z,0.47
2022-11-24T05:24:59.334Z,1.58
2022-11-24T05:27:27.546Z,2.30
2022-11-24T05:29:55.363Z,1.77
2022-11-24T05:32:24.729Z,1.45
2022-11-24T05:34:53.864Z,1.88
2022-11-24T05:37:22.002Z,2.45
2022-11-24T05:39:49.720Z,2.13
2022-11-24T05:42:35.299Z,1.70
2022-11-24T05:45:03.532Z,2.58
2022-11-24T05:47:33.068Z,1.40
2022-11-24T05:50:00.768Z,2.00
2022-11-24T05:52:28.583Z,1.45
2022-11-24T05:54:56.375Z,1.90
2022-11-24T05:57:24.072Z,1.83
2022-11-24T05:59:51.724Z,2.45
2022-11-24T06:02:19.803Z,1.95
2022-11-24T06:04:48.996Z,2.05
2022-11-24T06:07:17.148Z,1.80
2022-11-24T06:09:45.249Z,1.63
2022-11-24T06:12:14.298Z,2.15
2022-11-24T06:14:42.556Z,1.92
2022-11-24T06:17:11.200Z,1.52
2022-11-24T06:19:42.059Z,1.95
2022-11-24T06:22:11.454Z,1.63
2022-11-24T06:24:39.220Z,1.75
2022-11-24T06:27:07.601Z,2.10
2022-11-24T06:29:35.462Z,2.03
2022-11-24T06:32:03.209Z,3.28
2022-11-24T06:34:31.197Z,2.35
2022-11-24T06:36:59.092Z,1.90
2022-11-24T06:39:28.296Z,2.88
2022-11-24T06:41:56.120Z,2.67
2022-11-24T06:44:23.855Z,2.45
2022-11-24T06:46:51.524Z,2.25
2022-11-24T06:49:19.681Z,1.67
2022-11-24T06:51:47.378Z,2.90
2022-11-24T06:54:17.010Z,3.40
2022-11-24T06:56:46.157Z,2.92
2022-11-24T06:59:17.443Z,3.20
2022-11-24T07:01:45.154Z,3.13
2022-11-24T07:04:12.925Z,2.28
2022-11-24T07:06:41.402Z,2.33
2022-11-24T07:09:10.159Z,2.83
2022-11-24T07:11:38.843Z,3.00
2022-11-24T07:14:07.919Z,2.15
2022-11-24T07:16:35.941Z,2.63
2022-11-24T07:19:04.087Z,2.22
2022-11-24T07:21:31.838Z,2.45
2022-11-24T07:24:00.111Z,3.00
2022-11-24T07:26:28.538Z,2.47
2022-11-24T07:28:56.333Z,2.78
2022-11-24T07:31:26.138Z,3.40
2022-11-24T07:33:55.783Z,2.22
2022-11-24T07:36:24.152Z,3.28
2022-11-24T07:38:52.125Z,2.75
2022-11-24T07:41:20.943Z,2.70
2022-11-24T07:43:49.578Z,2.20
2022-11-24T07:46:20.009Z,2.83
2022-11-24T07:48:49.230Z,2.83
2022-11-24T07:51:17.227Z,2.03
2022-11-24T07:53:46.300Z,1.27
2022-11-24T07:56:14.343Z,1.05
2022-11-24T07:58:42.057Z,0.77
2022-11-24T08:01:12.238Z,1.10
2022-11-24T08:03:40.805Z,0.77
2022-11-24T08:08:59.257Z,2.40
2022-11-24T08:11:27.285Z,0.68
2022-11-24T08:13:55.209Z,0.70
2022-11-24T08:16:22.968Z,0.82
2022-11-24T08:18:51.670Z,0.50
2022-11-24T08:21:23.114Z,0.55
2022-11-24T08:23:51.088Z,0.80
2022-11-24T08:26:19.367Z,0.35
2022-11-24T08:28:48.283Z,0.55
2022-11-24T08:31:19.506Z,0.30
2022-11-24T08:33:47.635Z,0.55
2022-11-24T08:36:17.236Z,0.50
2022-11-24T08:38:48.891Z,0.50
2022-11-24T08:41:18.205Z,0.45
2022-11-24T08:43:46.102Z,0.35
2022-11-24T08:46:16.918Z,0.55
2022-11-24T08:48:48.089Z,0.50
2022-11-24T08:51:18.027Z,0.50
2022-11-24T08:53:47.232Z,0.80
2022-11-24T08:56:15.463Z,0.30
2022-11-24T08:58:43.604Z,0.50
2022-11-24T09:01:14.029Z,0.30
2022-11-24T09:03:48.511Z,0.43
2022-11-24T09:06:19.287Z,1.02
2022-11-24T09:08:48.672Z,0.40
2022-11-24T09:11:17.948Z,0.70
2022-11-24T09:13:46.399Z,0.38
2022-11-24T09:16:15.934Z,0.80
2022-11-24T09:18:43.965Z,0.40
2022-11-24T09:21:13.790Z,0.50
2022-11-24T09:23:42.877Z,0.50
2022-11-24T09:26:14.128Z,0.38
2022-11-24T09:28:42.208Z,0.30
2022-11-24T09:31:11.863Z,0.73
2022-11-24T09:33:39.972Z,0.57
2022-11-24T09:36:08.970Z,0.47
2022-11-24T09:38:36.894Z,0.40
2022-11-24T09:41:28.182Z,0.52
2022-11-24T09:44:06.235Z,0.50
2022-11-24T09:46:41.371Z,0.30
2022-11-24T09:49:16.130Z,0.40
2022-11-24T09:51:47.878Z,0.73
2022-11-24T09:54:20.455Z,0.50
2022-11-24T09:56:51.374Z,0.80
2022-11-24T09:59:21.214Z,0.40
2022-11-24T10:01:50.964Z,0.90
2022-11-24T10:04:22.531Z,0.68
2022-11-24T10:07:01.196Z,0.57
2022-11-24T10:09:40.090Z,0.40
2022-11-24T10:12:21.425Z,0.43
2022-11-24T10:15:01.839Z,0.82
2022-11-24T10:17:43.460Z,0.40
2022-11-24T10:20:21.723Z,0.47
2022-11-24T10:22:59.359Z,0.50
2022-11-24T10:25:37.870Z,0.22
2022-11-24T10:28:13.667Z,0.32
2022-11-24T10:30:41.782Z,0.30
2022-11-24T10:33:17.814Z,0.43
2022-11-24T10:35:49.265Z,0.30
2022-11-24T10:38:30.833Z,0.50
2022-11-24T10:41:04.233Z,0.90
2022-11-24T10:43:33.335Z,0.40
2022-11-24T10:46:11.033Z,0.30
2022-11-24T10:48:42.822Z,0.52
2022-11-24T10:51:34.508Z,0.60
2022-11-24T10:54:06.857Z,0.50
2022-11-24T10:56:40.227Z,0.68
2022-11-24T10:59:30.193Z,0.63
2022-11-24T11:01:58.052Z,0.68
2022-11-24T11:04:28.919Z,1.02
2022-11-24T11:07:10.948Z,1.08
2022-11-24T11:09:38.742Z,0.85
2022-11-24T11:15:28.172Z,1.17
2022-11-24T11:17:59.027Z,0.65
2022-11-24T11:20:32.548Z,1.17
2022-11-24T11:23:03.108Z,0.57
2022-11-24T11:25:33.997Z,0.80
2022-11-24T11:28:29.662Z,0.77
2022-11-24T11:34:08.328Z,0.82
2022-11-24T11:36:43.068Z,1.00
2022-11-24T11:39:24.124Z,0.88
2022-11-24T11:41:57.567Z,1.20
2022-11-24T11:44:35.699Z,1.08
2022-11-24T11:47:15.110Z,1.65
2022-11-24T11:49:43.103Z,1.08
2022-11-24T11:52:40.491Z,1.35
2022-11-24T11:55:32.962Z,1.75
2022-11-24T11:58:14.425Z,1.70
2022-11-24T12:00:48.840Z,1.85
2022-11-24T12:06:16.409Z,1.45
2022-11-24T12:09:18.514Z,1.60
2022-11-24T12:11:44.666Z,0.70
2022-11-24T12:16:54.336Z,1.40
2022-11-24T12:19:36.971Z,1.52
2022-11-24T12:22:18.345Z,1.20
2022-11-24T12:24:54.511Z,2.08
2022-11-24T12:27:34.303Z,1.88
2022-11-24T12:30:12.082Z,1.20
2022-11-24T12:33:08.573Z,1.58
2022-11-24T12:35:39.740Z,1.23
2022-11-24T12:38:23.707Z,1.02
2022-11-24T12:41:33.673Z,2.00
2022-11-24T12:43:58.170Z,1.90
2022-11-24T12:46:35.522Z,2.10
2022-11-24T12:49:15.582Z,1.40
2022-11-24T12:51:45.654Z,1.15
2022-11-24T12:54:18.401Z,1.48
2022-11-24T12:56:54.620Z,1.02
2022-11-24T12:59:33.108Z,1.42
2022-11-24T13:02:13.657Z,1.20
2022-11-24T13:04:48.238Z,0.85
2022-11-24T13:10:18.579Z,1.10
2022-11-24T13:12:58.556Z,1.83
2022-11-24T13:15:45.250Z,1.08
2022-11-24T13:18:44.031Z,1.10
2022-11-24T13:21:48.068Z,0.90
2022-11-24T13:24:27.393Z,1.35
2022-11-24T13:27:19.775Z,1.13
2022-11-24T13:29:49.685Z,1.42
2022-11-24T13:33:00.167Z,1.10
2022-11-24T13:35:27.848Z,0.90
2022-11-24T13:37:55.671Z,1.08
2022-11-24T13:40:54.267Z,0.63
2022-11-24T13:43:30.127Z,1.50
2022-11-24T13:45:59.160Z,1.35
2022-11-24T13:49:03.808Z,1.00
2022-11-24T13:51:31.624Z,0.90
2022-11-24T13:54:01.050Z,1.38
2022-11-24T13:56:31.534Z,1.30
2022-11-24T13:59:01.784Z,1.73
2022-11-24T14:01:33.245Z,1.30
2022-11-24T14:04:34.009Z,1.00
2022-11-24T14:07:08.441Z,1.05
2022-11-24T14:09:42.934Z,1.65
2022-11-24T14:12:15.329Z,0.73
2022-11-24T14:14:45.108Z,0.80
2022-11-24T14:17:18.803Z,1.25
2022-11-24T14:19:48.547Z,1.20
2022-11-24T14:22:18.874Z,1.88
2022-11-24T14:24:52.137Z,1.15
2022-11-24T14:27:30.234Z,1.40
2022-11-24T14:29:59.723Z,1.00
2022-11-24T14:32:29.164Z,1.30
2022-11-24T14:34:57.194Z,1.30
2022-11-24T14:37:25.153Z,0.98
2022-11-24T14:39:54.175Z,1.25
2022-11-24T14:42:24.084Z,0.70
2022-11-24T14:44:55.617Z,1.05
2022-11-24T14:47:31.408Z,0.55
2022-11-24T14:50:12.980Z,1.23
2022-11-24T14:52:46.800Z,1.67
2022-11-24T14:55:28.993Z,1.90
2022-11-24T14:57:57.246Z,1.48
2022-11-24T15:00:30.916Z,0.98
2022-11-24T15:03:16.944Z,2.22
2022-11-24T15:05:54.716Z,1.15
2022-11-24T15:08:25.056Z,1.23
2022-11-24T15:10:59.197Z,0.85
2022-11-24T15:16:02.435Z,1.00
2022-11-24T15:18:38.400Z,1.15
2022-11-24T15:21:07.977Z,0.77
2022-11-24T15:23:36.666Z,0.82
2022-11-24T15:26:30.688Z,1.25
2022-11-24T15:29:00.183Z,1.02
2022-11-24T15:31:28.024Z,0.63
2022-11-24T15:33:55.830Z,1.17
2022-11-24T15:36:24.983Z,1.63
2022-11-24T15:38:52.864Z,0.68
2022-11-24T15:41:23.053Z,0.95
2022-11-24T15:43:50.987Z,1.45
2022-11-24T15:46:18.796Z,1.67
2022-11-24T15:48:46.817Z,1.17
2022-11-24T15:51:15.862Z,1.63
2022-11-24T15:53:48.391Z,1.40
2022-11-24T15:56:25.416Z,4.32
2022-11-24T15:58:54.211Z,2.08
2022-11-24T16:01:24.246Z,2.22
2022-11-24T16:03:52.196Z,1.85
2022-11-24T16:06:24.943Z,2.70
2022-11-24T16:08:55.497Z,1.88
2022-11-24T16:11:23.599Z,2.15
2022-11-24T16:13:54.026Z,2.45
2022-11-24T16:16:23.128Z,3.40
2022-11-24T16:18:50.910Z,2.90
2022-11-24T16:21:18.901Z,3.85
2022-11-24T16:23:47.682Z,3.83
2022-11-24T16:26:16.942Z,2.35
2022-11-24T16:28:45.761Z,2.55
2022-11-24T16:31:15.691Z,3.05
2022-11-24T16:33:44.718Z,3.60
2022-11-24T16:36:12.581Z,4.78
2022-11-24T16:38:40.290Z,4.57
2022-11-24T16:41:09.438Z,5.00
2022-11-24T16:43:39.083Z,3.78
2022-11-24T16:46:18.371Z,4.03
2022-11-24T16:48:47.045Z,4.28
2022-11-24T16:51:15.739Z,3.55
2022-11-24T16:53:44.180Z,3.70
2022-11-24T16:56:12.552Z,3.72
2022-11-24T16:58:42.199Z,2.55
2022-11-24T17:01:11.740Z,2.13
2022-11-24T17:03:39.856Z,2.90
2022-11-24T17:06:09.932Z,3.33
2022-11-24T17:08:39.806Z,2.85
2022-11-24T17:11:07.798Z,2.97
2022-11-24T17:13:35.647Z,3.83
2022-11-24T17:16:06.434Z,3.42
2022-11-24T17:18:35.042Z,2.45
2022-11-24T17:21:09.207Z,3.08
2022-11-24T17:23:38.168Z,3.35
2022-11-24T17:26:07.536Z,2.00
2022-11-24T17:28:35.807Z,2.88
2022-11-24T17:31:08.674Z,2.08
2022-11-24T17:33:37.180Z,2.92
2022-11-24T17:36:05.868Z,2.90
2022-11-24T17:38:35.045Z,2.60
2022-11-24T17:41:03.112Z,2.85
2022-11-24T17:43:30.829Z,2.90
2022-11-24T17:46:01.961Z,2.90
2022-11-24T17:48:31.748Z,3.25
2022-11-24T17:51:00.984Z,3.05
2022-11-24T17:53:28.772Z,2.58
2022-11-24T17:56:00.148Z,3.00
2022-11-24T17:58:28.675Z,3.25
2022-11-24T18:00:56.533Z,3.13
2022-11-24T18:03:25.525Z,3.58
2022-11-24T18:05:54.671Z,3.33
2022-11-24T18:08:22.397Z,3.63
2022-11-24T18:10:50.146Z,3.97
2022-11-24T18:13:34.329Z,4.13
2022-11-24T18:16:08.015Z,3.70
2022-11-24T18:18:40.146Z,4.18
2022-11-24T18:21:14.050Z,3.58
2022-11-24T18:23:43.299Z,3.27
2022-11-24T18:26:14.785Z,4.18
2022-11-24T18:28:43.522Z,3.38
2022-11-24T18:31:13.012Z,3.58
2022-11-24T18:33:42.387Z,4.07
2022-11-24T18:36:14.948Z,4.47
2022-11-24T18:38:42.815Z,4.53
2022-11-24T18:41:12.858Z,4.10
2022-11-24T18:43:40.967Z,4.78
2022-11-24T18:46:12.088Z,4.65
2022-11-24T18:48:39.914Z,4.60
2022-11-24T18:51:08.629Z,5.03
2022-11-24T18:53:37.739Z,3.72
2022-11-24T18:56:07.371Z,5.25
2022-11-24T18:58:36.559Z,4.60
2022-11-24T19:01:09.089Z,4.82
2022-11-24T19:03:47.863Z,3.78
2022-11-24T19:06:18.312Z,4.10
2022-11-24T19:08:48.015Z,4.40
2022-11-24T19:11:20.233Z,4.50
2022-11-24T19:13:49.281Z,5.97
2022-11-24T19:16:17.811Z,4.45
2022-11-24T19:18:51.859Z,5.13
2022-11-24T19:21:21.641Z,4.15
2022-11-24T19:23:51.062Z,4.07
2022-11-24T19:26:19.512Z,4.03
2022-11-24T19:28:47.364Z,5.25
2022-11-24T19:31:17.066Z,4.50
2022-11-24T19:33:45.753Z,4.35
2022-11-24T19:36:15.226Z,4.38
2022-11-24T19:38:43.690Z,4.25
2022-11-24T19:41:16.075Z,4.40
2022-11-24T19:43:43.952Z,3.80
2022-11-24T19:46:13.263Z,3.63
2022-11-24T19:48:43.124Z,5.13
2022-11-24T19:51:15.344Z,5.47
2022-11-24T19:53:43.345Z,5.40
2022-11-24T19:56:14.076Z,5.68
2022-11-24T19:58:42.459Z,6.80
2022-11-24T20:01:11.642Z,6.57
2022-11-24T20:03:40.515Z,6.60
2022-11-24T20:06:12.318Z,6.78
2022-11-24T20:08:42.551Z,6.75
2022-11-24T20:11:15.475Z,6.05
2022-11-24T20:13:45.353Z,6.00
2022-11-24T20:16:17.603Z,6.43
2022-11-24T20:18:47.311Z,5.88
2022-11-24T20:21:17.660Z,6.05
2022-11-24T20:23:47.388Z,6.97
2022-11-24T20:26:19.639Z,7.28
2022-11-24T20:28:48.108Z,8.30
2022-11-24T20:31:18.350Z,8.02
2022-11-24T20:33:46.663Z,8.55
2022-11-24T20:36:16.791Z,8.75
2022-11-24T20:38:46.096Z,8.55
2022-11-24T20:41:17.161Z,9.23
2022-11-24T20:43:45.972Z,9.18
2022-11-24T20:46:15.733Z,9.30
2022-11-24T20:48:43.972Z,9.55
2022-11-24T20:51:13.795Z,8.70
2022-11-24T20:53:42.017Z,11.07
2022-11-24T20:56:12.239Z,9.02
2022-11-24T20:58:41.558Z,9.52
2022-11-24T21:01:11.345Z,10.43
2022-11-24T21:03:43.049Z,10.82
2022-11-24T21:06:12.149Z,10.95
2022-11-24T21:08:41.699Z,10.90
2022-11-24T21:11:11.021Z,11.43
2022-11-24T21:13:40.265Z,10.70
2022-11-24T21:16:14.888Z,11.40
2022-11-24T21:18:42.904Z,12.13
2022-11-24T21:21:10.633Z,10.60
2022-11-24T21:23:38.413Z,11.82
2022-11-24T21:26:13.032Z,10.55
2022-11-24T21:28:43.895Z,12.73
2022-11-24T21:31:14.626Z,10.32
2022-11-24T21:33:43.364Z,9.82
2022-11-24T21:36:11.449Z,10.43
2022-11-24T21:38:39.322Z,10.57
2022-11-24T21:41:08.588Z,9.85
2022-11-24T21:43:36.635Z,10.55
2022-11-24T21:46:06.605Z,10.25
2022-11-24T21:48:37.377Z,10.80
2022-11-24T21:51:07.137Z,12.40
2022-11-24T21:53:36.808Z,12.57
2022-11-24T21:56:06.383Z,11.55
2022-11-24T21:58:34.775Z,12.25
2022-11-24T22:01:03.637Z,12.30
2022-11-24T22:03:31.443Z,17.98
2022-11-24T22:06:01.859Z,20.90
2022-11-24T22:08:31.160Z,21.25
2022-11-24T22:11:01.867Z,16.52
2022-11-24T22:13:29.974Z,14.95
2022-11-24T22:16:02.062Z,15.07
2022-11-24T22:18:33.950Z,14.27
2022-11-24T22:21:03.877Z,14.27
2022-11-24T22:23:32.379Z,12.90
2022-11-24T22:26:03.776Z,12.73
2022-11-24T22:28:33.114Z,13.23
2022-11-24T22:31:05.726Z,13.85
2022-11-24T22:33:33.966Z,12.15
2022-11-24T22:36:03.832Z,12.52
2022-11-24T22:38:32.902Z,12.10
2022-11-24T22:41:03.981Z,13.52
2022-11-24T22:43:33.394Z,12.65
2022-11-24T22:46:05.792Z,13.90
2022-11-24T22:48:34.359Z,12.63
2022-11-24T22:51:04.483Z,13.02
2022-11-24T22:53:32.539Z,12.75
2022-11-24T22:56:03.862Z,12.95
2022-11-24T22:58:31.666Z,12.15
2022-11-24T23:01:05.070Z,13.00
2022-11-24T23:03:33.157Z,13.35
2022-11-24T23:06:01.552Z,13.23
2022-11-24T23:08:32.924Z,12.85
2022-11-24T23:11:02.044Z,13.20
2022-11-24T23:13:30.080Z,11.82
2022-11-24T23:16:02.086Z,12.65
2022-11-24T23:18:30.085Z,11.90
2022-11-24T23:20:58.002Z,13.55
2022-11-24T23:23:25.816Z,13.45
2022-11-24T23:25:54.844Z,14.45
2022-11-24T23:28:22.548Z,14.13
2022-11-24T23:30:50.359Z,14.52
2022-11-24T23:33:18.095Z,13.95
2022-11-24T23:35:45.764Z,12.90
2022-11-24T23:38:13.518Z,14.13
2022-11-24T23:40:41.202Z,13.43
2022-11-24T23:43:10.264Z,14.77
2022-11-24T23:45:38.024Z,13.43
2022-11-24T23:48:08.429Z,13.05
2022-11-24T23:50:36.214Z,13.90
2022-11-24T23:53:03.895Z,13.38
2022-11-24T23:55:31.785Z,12.52
2022-11-24T23:57:59.490Z,13.07
